createdAt,value
2022-09-07T00:02:09.524Z,100.00
2022-09-07T00:04:36.231Z,100.00
2022-09-07T00:07:02.855Z,100.00
2022-09-07T00:09:29.419Z,100.00
2022-09-07T00:11:55.972Z,100.00
2022-09-07T00:14:22.547Z,100.00
2022-09-07T00:16:49.166Z,100.00
2022-09-07T00:19:15.752Z,100.00
2022-09-07T00:21:43.529Z,100.00
2022-09-07T00:24:10.662Z,100.00
2022-09-07T00:26:37.261Z,100.00
2022-09-07T00:29:04.592Z,100.00
2022-09-07T00:31:31.875Z,100.00
2022-09-07T00:34:00.628Z,100.00
2022-09-07T00:36:27.712Z,100.00
2022-09-07T00:38:54.736Z,100.00
2022-09-07T00:41:22.109Z,100.00
2022-09-07T00:43:54.471Z,100.00
2022-09-07T00:46:24.726Z,100.00
2022-09-07T00:49:16.244Z,100.00
2022-09-07T00:51:48.544Z,100.00
2022-09-07T00:54:24.401Z,100.00
2022-09-07T00:56:55.275Z,100.00
2022-09-07T00:59:26.828Z,100.00
2022-09-07T01:01:53.965Z,100.00
2022-09-07T01:04:22.530Z,100.00
2022-09-07T01:06:49.335Z,100.00
2022-09-07T01:09:20.611Z,100.00
2022-09-07T01:11:51.128Z,100.00
2022-09-07T01:14:31.003Z,100.00
2022-09-07T01:17:15.353Z,100.00
2022-09-07T01:20:09.468Z,100.00
2022-09-07T01:23:00.729Z,100.00
2022-09-07T01:26:14.195Z,100.00
2022-09-07T01:28:42.199Z,100.00
2022-09-07T01:31:27.144Z,100.00
2022-09-07T01:34:07.523Z,100.00
2022-09-07T01:36:48.795Z,100.00
2022-09-07T01:39:17.408Z,100.00
2022-09-07T01:41:51.620Z,100.00
2022-09-07T01:44:23.449Z,100.00
2022-09-07T01:46:57.404Z,100.00
2022-09-07T01:49:30.440Z,100.00
2022-09-07T01:52:06.243Z,100.00
2022-09-07T01:54:45.481Z,100.00
2022-09-07T01:57:21.373Z,100.00
2022-09-07T01:59:57.516Z,100.00
2022-09-07T02:02:29.972Z,100.00
2022-09-07T02:05:03.361Z,100.00
2022-09-07T02:07:57.289Z,100.00
2022-09-07T02:10:40.394Z,100.00
2022-09-07T02:13:30.519Z,100.00
2022-09-07T02:16:02.951Z,100.00
2022-09-07T02:18:37.455Z,100.00
2022-09-07T02:21:06.590Z,100.00
2022-09-07T02:23:40.786Z,100.00
2022-09-07T02:26:13.868Z,100.00
2022-09-07T02:28:40.730Z,100.00
2022-09-07T02:31:08.291Z,100.00
2022-09-07T02:33:35.362Z,100.00
2022-09-07T02:36:04.419Z,100.00
2022-09-07T02:38:32.531Z,100.00
2022-09-07T02:41:01.083Z,100.00
2022-09-07T02:43:30.272Z,100.00
2022-09-07T02:46:22.817Z,100.00
2022-09-07T02:49:14.211Z,100.00
2022-09-07T02:51:52.716Z,100.00
2022-09-07T02:54:54.452Z,100.00
2022-09-07T02:57:59.172Z,100.00
2022-09-07T03:00:26.389Z,100.00
2022-09-07T03:03:08.368Z,100.00
2022-09-07T03:05:59.667Z,100.00
2022-09-07T03:08:32.460Z,100.00
2022-09-07T03:10:59.248Z,100.00
2022-09-07T03:13:28.123Z,100.00
2022-09-07T03:15:56.421Z,100.00
2022-09-07T03:18:24.656Z,100.00
2022-09-07T03:20:51.955Z,100.00
2022-09-07T03:23:18.893Z,100.00
2022-09-07T03:25:45.628Z,100.00
2022-09-07T03:28:12.208Z,100.00
2022-09-07T03:30:44.112Z,100.00
2022-09-07T03:33:10.860Z,100.00
2022-09-07T03:35:37.861Z,100.00
2022-09-07T03:38:04.435Z,100.00
2022-09-07T03:40:30.965Z,100.00
2022-09-07T03:42:57.479Z,100.00
2022-09-07T03:45:24.052Z,100.00
2022-09-07T03:47:51.148Z,100.00
2022-09-07T03:50:18.094Z,100.00
2022-09-07T03:52:44.784Z,100.00
2022-09-07T03:55:11.741Z,100.00
2022-09-07T03:57:39.099Z,100.00
2022-09-07T04:00:06.315Z,100.00
2022-09-07T04:02:32.989Z,100.00
2022-09-07T04:04:59.552Z,100.00
2022-09-07T04:07:26.147Z,100.00
2022-09-07T04:09:52.711Z,100.00
2022-09-07T04:12:19.349Z,100.00
2022-09-07T04:14:46.388Z,100.00
2022-09-07T04:17:12.943Z,100.00
2022-09-07T04:19:39.514Z,100.00
2022-09-07T04:22:06.011Z,100.00
2022-09-07T04:24:32.579Z,100.00
2022-09-07T04:26:59.159Z,100.00
2022-09-07T04:29:25.723Z,100.00
2022-09-07T04:31:52.259Z,100.00
2022-09-07T04:34:18.787Z,100.00
2022-09-07T04:36:45.354Z,100.00
2022-09-07T04:39:12.126Z,100.00
2022-09-07T04:41:38.940Z,100.00
2022-09-07T04:44:05.628Z,100.00
2022-09-07T04:46:35.141Z,100.00
2022-09-07T04:49:06.737Z,100.00
2022-09-07T04:51:33.722Z,100.00
2022-09-07T04:54:02.354Z,100.00
2022-09-07T04:56:29.789Z,100.00
2022-09-07T04:58:56.669Z,100.00
2022-09-07T05:01:24.502Z,100.00
2022-09-07T05:03:51.160Z,100.00
2022-09-07T05:06:19.073Z,100.00
2022-09-07T05:08:48.571Z,100.00
2022-09-07T05:11:16.280Z,100.00
2022-09-07T05:13:43.186Z,100.00
2022-09-07T05:16:21.539Z,100.00
2022-09-07T05:18:52.534Z,100.00
2022-09-07T05:21:21.759Z,100.00
2022-09-07T05:23:53.301Z,100.00
2022-09-07T05:26:22.099Z,100.00
2022-09-07T05:28:49.148Z,100.00
2022-09-07T05:31:20.995Z,100.00
2022-09-07T05:36:36.363Z,100.00
2022-09-07T05:39:04.724Z,100.00
2022-09-07T05:41:31.459Z,100.00
2022-09-07T05:46:44.757Z,100.00
2022-09-07T05:49:11.391Z,100.00
2022-09-07T05:51:38.071Z,100.00
2022-09-07T05:54:04.745Z,100.00
2022-09-07T05:56:35.300Z,100.00
2022-09-07T05:59:01.978Z,100.00
2022-09-07T06:01:28.603Z,100.00
2022-09-07T06:03:55.161Z,100.00
2022-09-07T06:06:21.893Z,100.00
2022-09-07T06:08:51.181Z,100.00
2022-09-07T06:11:20.705Z,100.00
2022-09-07T06:13:47.408Z,100.00
2022-09-07T06:16:15.300Z,100.00
2022-09-07T06:18:44.276Z,100.00
2022-09-07T06:21:13.078Z,100.00
2022-09-07T06:23:41.240Z,100.00
2022-09-07T06:26:08.385Z,100.00
2022-09-07T06:28:37.191Z,100.00
2022-09-07T06:31:06.538Z,100.00
2022-09-07T06:33:33.702Z,100.00
2022-09-07T06:36:02.590Z,100.00
2022-09-07T06:38:31.922Z,100.00
2022-09-07T06:43:54.805Z,100.00
2022-09-07T06:49:08.759Z,100.00
2022-09-07T06:51:35.297Z,98.95
2022-09-07T06:56:48.756Z,96.29
2022-09-07T06:59:15.326Z,95.13
2022-09-07T07:01:41.944Z,96.70
2022-09-07T07:04:08.494Z,96.82
2022-09-07T07:06:36.717Z,97.50
2022-09-07T07:09:05.804Z,98.58
2022-09-07T07:11:32.741Z,97.79
2022-09-07T07:14:00.015Z,91.83
2022-09-07T07:16:26.670Z,92.81
2022-09-07T07:18:56.805Z,91.45
2022-09-07T07:21:24.030Z,91.89
2022-09-07T07:23:52.658Z,93.63
2022-09-07T07:26:22.004Z,92.91
2022-09-07T07:29:06.298Z,92.39
2022-09-07T07:31:33.707Z,93.63
2022-09-07T07:34:00.480Z,93.26
2022-09-07T07:36:28.128Z,90.81
2022-09-07T07:38:59.966Z,90.38
2022-09-07T07:44:18.165Z,89.93
2022-09-07T07:46:47.978Z,89.77
2022-09-07T07:49:14.873Z,87.49
2022-09-07T07:54:28.033Z,86.30
2022-09-07T07:56:54.545Z,82.57
2022-09-07T07:59:21.146Z,88.15
2022-09-07T08:01:47.803Z,86.48
2022-09-07T08:04:14.453Z,87.21
2022-09-07T08:06:44.022Z,88.26
2022-09-07T08:09:12.025Z,87.35
2022-09-07T08:11:40.294Z,84.66
2022-09-07T08:14:08.629Z,86.03
2022-09-07T08:16:36.275Z,81.24
2022-09-07T08:19:03.503Z,84.52
2022-09-07T08:21:30.091Z,84.94
2022-09-07T08:23:56.668Z,86.00
2022-09-07T08:26:23.199Z,88.92
2022-09-07T08:28:49.646Z,86.04
2022-09-07T08:31:17.489Z,81.81
2022-09-07T08:33:44.818Z,85.11
2022-09-07T08:36:14.637Z,86.02
2022-09-07T08:38:41.926Z,85.72
2022-09-07T08:41:30.425Z,79.49
2022-09-07T08:44:04.446Z,68.49
2022-09-07T08:46:54.409Z,60.71
2022-09-07T08:49:51.326Z,64.20
2022-09-07T08:52:50.751Z,57.87
2022-09-07T08:55:21.490Z,58.21
2022-09-07T08:58:04.900Z,55.28
2022-09-07T09:00:31.606Z,55.51
2022-09-07T09:06:08.075Z,54.54
2022-09-07T09:09:08.209Z,52.90
2022-09-07T09:11:56.333Z,53.34
2022-09-07T09:14:42.821Z,54.15
2022-09-07T09:17:17.841Z,55.89
2022-09-07T09:20:18.868Z,53.62
2022-09-07T09:22:45.618Z,58.63
2022-09-07T09:25:31.073Z,56.82
2022-09-07T09:27:57.535Z,57.35
2022-09-07T09:30:24.432Z,54.39
2022-09-07T09:32:53.097Z,51.13
2022-09-07T09:35:34.392Z,51.65
2022-09-07T09:38:03.674Z,53.47
2022-09-07T09:40:33.255Z,52.98
2022-09-07T09:43:04.943Z,51.34
2022-09-07T09:48:39.237Z,49.28
2022-09-07T09:54:16.956Z,45.53
2022-09-07T09:56:46.454Z,49.59
2022-09-07T10:05:28.359Z,51.08
2022-09-07T10:07:55.326Z,48.11
2022-09-07T10:10:21.898Z,48.65
2022-09-07T10:12:54.117Z,46.92
2022-09-07T10:15:27.339Z,51.16
2022-09-07T10:17:53.899Z,51.65
2022-09-07T10:20:32.004Z,49.73
2022-09-07T10:23:00.007Z,46.03
2022-09-07T10:25:29.487Z,47.06
2022-09-07T10:28:15.153Z,47.07
2022-09-07T10:31:15.260Z,39.03
2022-09-07T10:37:09.534Z,60.83
2022-09-07T10:39:41.971Z,62.07
2022-09-07T10:42:29.006Z,51.56
2022-09-07T10:45:19.305Z,52.44
2022-09-07T10:48:20.667Z,53.39
2022-09-07T10:50:53.249Z,56.06
2022-09-07T10:57:06.370Z,61.90
2022-09-07T11:00:08.753Z,63.38
2022-09-07T11:06:06.062Z,61.37
2022-09-07T11:14:22.031Z,63.49
2022-09-07T11:17:13.933Z,63.43
2022-09-07T11:19:49.134Z,65.10
2022-09-07T11:22:21.830Z,69.17
2022-09-07T11:27:56.244Z,72.64
2022-09-07T11:30:28.337Z,73.15
2022-09-07T11:33:11.053Z,71.90
2022-09-07T11:35:49.904Z,63.08
2022-09-07T11:38:30.888Z,63.72
2022-09-07T11:41:12.724Z,67.57
2022-09-07T11:43:44.220Z,65.19
2022-09-07T11:46:19.379Z,61.48
2022-09-07T11:48:52.250Z,62.04
2022-09-07T11:51:26.313Z,62.66
2022-09-07T11:54:25.261Z,66.27
2022-09-07T11:57:00.525Z,64.89
2022-09-07T11:59:39.772Z,61.56
2022-09-07T12:02:32.339Z,61.46
2022-09-07T12:05:43.134Z,64.39
2022-09-07T12:08:18.822Z,63.85
2022-09-07T12:10:57.613Z,62.42
2022-09-07T12:13:45.281Z,62.14
2022-09-07T12:16:23.899Z,62.10
2022-09-07T12:19:13.868Z,60.69
2022-09-07T12:21:53.745Z,62.31
2022-09-07T12:24:35.424Z,57.56
2022-09-07T12:27:03.669Z,56.89
2022-09-07T12:29:31.208Z,61.09
2022-09-07T12:34:54.455Z,57.79
2022-09-07T12:37:27.094Z,56.77
2022-09-07T12:40:28.032Z,55.84
2022-09-07T12:43:32.483Z,56.91
2022-09-07T12:46:01.149Z,59.40
2022-09-07T12:48:40.907Z,57.04
2022-09-07T12:54:19.797Z,57.50
2022-09-07T12:59:55.399Z,55.71
2022-09-07T13:02:45.030Z,57.66
2022-09-07T13:05:36.697Z,59.53
2022-09-07T13:08:18.650Z,56.79
2022-09-07T13:10:47.189Z,58.12
2022-09-07T13:14:02.636Z,56.16
2022-09-07T13:16:06.679Z,54.15
2022-09-07T13:18:35.995Z,52.01
2022-09-07T13:21:28.988Z,53.29
2022-09-07T13:27:11.064Z,55.89
2022-09-07T13:29:52.156Z,53.72
2022-09-07T13:35:23.735Z,52.26
2022-09-07T13:37:57.942Z,54.49
2022-09-07T13:40:27.721Z,54.77
2022-09-07T13:42:57.053Z,55.20
2022-09-07T13:45:57.023Z,54.31
2022-09-07T13:48:26.431Z,54.16
2022-09-07T13:51:20.489Z,50.97
2022-09-07T13:54:06.437Z,50.31
2022-09-07T13:56:45.490Z,52.39
2022-09-07T13:59:25.080Z,53.10
2022-09-07T14:01:52.463Z,51.96
2022-09-07T14:04:39.397Z,51.31
2022-09-07T14:07:19.355Z,51.81
2022-09-07T14:09:48.942Z,52.36
2022-09-07T14:12:19.191Z,51.21
2022-09-07T14:14:46.802Z,50.06
2022-09-07T14:17:19.231Z,50.87
2022-09-07T14:19:49.373Z,51.72
2022-09-07T14:22:26.944Z,49.42
2022-09-07T14:24:56.168Z,50.27
2022-09-07T14:27:36.417Z,47.02
2022-09-07T14:30:21.509Z,46.55
2022-09-07T14:32:50.200Z,50.86
2022-09-07T14:35:22.627Z,48.96
2022-09-07T14:37:50.009Z,49.80
2022-09-07T14:40:21.846Z,47.82
2022-09-07T14:42:50.105Z,49.21
2022-09-07T14:45:32.746Z,49.98
2022-09-07T14:47:59.344Z,48.74
2022-09-07T14:50:41.424Z,46.98
2022-09-07T14:56:10.878Z,47.41
2022-09-07T14:58:37.564Z,47.24
2022-09-07T15:03:58.930Z,45.45
2022-09-07T15:09:37.908Z,44.81
2022-09-07T15:12:37.815Z,43.91
2022-09-07T15:15:26.217Z,43.78
2022-09-07T15:18:04.358Z,45.55
2022-09-07T15:20:38.908Z,43.82
2022-09-07T15:23:10.319Z,44.69
2022-09-07T15:25:37.899Z,46.24
2022-09-07T15:28:05.073Z,45.16
2022-09-07T15:30:33.390Z,42.43
2022-09-07T15:33:00.156Z,41.01
2022-09-07T15:35:27.071Z,41.41
2022-09-07T15:38:02.307Z,42.63
2022-09-07T15:40:35.846Z,46.01
2022-09-07T15:43:13.684Z,43.78
2022-09-07T15:45:51.245Z,43.36
2022-09-07T15:48:25.192Z,44.03
2022-09-07T15:51:01.464Z,42.29
2022-09-07T15:56:17.249Z,43.98
2022-09-07T15:58:46.617Z,45.14
2022-09-07T16:04:00.489Z,44.57
2022-09-07T16:06:27.333Z,45.45
2022-09-07T16:08:55.130Z,45.82
2022-09-07T16:11:25.591Z,45.95
2022-09-07T16:13:57.377Z,44.99
2022-09-07T16:17:26.627Z,45.77
2022-09-07T16:19:15.388Z,46.35
2022-09-07T16:21:42.820Z,45.42
2022-09-07T16:24:09.734Z,45.95
2022-09-07T16:26:36.712Z,45.81
2022-09-07T16:29:03.814Z,44.98
2022-09-07T16:31:31.416Z,47.85
2022-09-07T16:33:58.184Z,46.25
2022-09-07T16:36:24.806Z,47.05
2022-09-07T16:38:59.669Z,47.14
2022-09-07T16:41:29.669Z,46.07
2022-09-07T16:43:56.472Z,45.54
2022-09-07T16:46:25.691Z,46.24
2022-09-07T16:48:52.394Z,45.24
2022-09-07T16:51:21.252Z,45.56
2022-09-07T16:53:49.265Z,46.24
2022-09-07T16:56:18.491Z,45.89
2022-09-07T16:58:50.979Z,45.64
2022-09-07T17:01:20.243Z,45.88
2022-09-07T17:03:49.478Z,45.65
2022-09-07T17:06:17.285Z,45.70
2022-09-07T17:08:44.423Z,46.31
2022-09-07T17:11:17.973Z,47.47
2022-09-07T17:13:45.037Z,46.81
2022-09-07T17:16:17.737Z,48.02
2022-09-07T17:21:33.169Z,50.19
2022-09-07T17:24:00.753Z,47.46
2022-09-07T17:26:27.998Z,51.10
2022-09-07T17:29:00.102Z,48.83
2022-09-07T17:34:19.811Z,49.29
2022-09-07T17:36:47.137Z,50.16
2022-09-07T17:39:14.907Z,50.85
2022-09-07T17:41:43.361Z,51.54
2022-09-07T17:44:09.933Z,50.98
2022-09-07T17:46:36.425Z,51.30
2022-09-07T17:49:03.888Z,52.03
2022-09-07T17:51:31.880Z,51.66
2022-09-07T17:54:02.644Z,58.56
2022-09-07T17:56:31.405Z,57.77
2022-09-07T18:01:45.748Z,60.30
2022-09-07T18:04:13.251Z,59.50
2022-09-07T18:06:41.347Z,59.44
2022-09-07T18:09:07.957Z,63.37
2022-09-07T18:11:50.845Z,63.74
2022-09-07T18:14:18.968Z,64.41
2022-09-07T18:16:48.966Z,64.40
2022-09-07T18:19:16.172Z,65.43
2022-09-07T18:21:43.686Z,63.59
2022-09-07T18:24:17.053Z,66.40
2022-09-07T18:26:49.657Z,64.18
2022-09-07T18:29:29.505Z,62.89
2022-09-07T18:31:58.229Z,66.56
2022-09-07T18:34:25.191Z,68.11
2022-09-07T18:36:51.879Z,67.17
2022-09-07T18:39:18.741Z,68.85
2022-09-07T18:41:45.217Z,65.36
2022-09-07T18:46:58.307Z,65.66
2022-09-07T18:49:25.199Z,65.76
2022-09-07T18:54:39.715Z,68.29
2022-09-07T18:57:06.968Z,69.03
2022-09-07T18:59:33.959Z,69.84
2022-09-07T19:02:04.493Z,68.58
2022-09-07T19:07:20.776Z,70.50
2022-09-07T19:09:48.319Z,69.85
2022-09-07T19:12:15.377Z,69.22
2022-09-07T19:14:42.381Z,71.25
2022-09-07T19:17:10.991Z,68.89
2022-09-07T19:19:39.728Z,72.15
2022-09-07T19:22:06.483Z,71.99
2022-09-07T19:24:33.426Z,72.42
2022-09-07T19:27:01.003Z,71.67
2022-09-07T19:29:29.112Z,71.20
2022-09-07T19:32:05.431Z,72.15
2022-09-07T19:34:35.988Z,72.96
2022-09-07T19:37:03.289Z,72.63
2022-09-07T19:39:30.024Z,71.22
2022-09-07T19:41:56.687Z,70.82
2022-09-07T19:44:23.330Z,71.25
2022-09-07T19:46:50.179Z,74.48
2022-09-07T19:49:17.074Z,72.43
2022-09-07T19:51:43.727Z,73.20
2022-09-07T19:54:11.945Z,73.09
2022-09-07T19:56:40.338Z,73.17
2022-09-07T19:59:07.275Z,74.21
2022-09-07T20:01:35.145Z,73.40
2022-09-07T20:04:12.928Z,72.85
2022-09-07T20:06:41.556Z,74.28
2022-09-07T20:09:08.344Z,74.36
2022-09-07T20:11:36.107Z,75.12
2022-09-07T20:14:03.101Z,74.82
2022-09-07T20:16:31.076Z,75.28
2022-09-07T20:18:59.296Z,73.89
2022-09-07T20:21:26.391Z,74.83
2022-09-07T20:23:53.301Z,75.91
2022-09-07T20:26:21.357Z,75.09
2022-09-07T20:29:05.858Z,74.10
2022-09-07T20:31:40.876Z,77.81
2022-09-07T20:34:09.176Z,78.24
2022-09-07T20:36:35.948Z,78.63
2022-09-07T20:39:04.685Z,78.78
2022-09-07T20:41:33.985Z,79.29
2022-09-07T20:44:02.538Z,77.92
2022-09-07T20:46:30.320Z,77.18
2022-09-07T20:48:57.489Z,78.73
2022-09-07T20:51:24.342Z,76.65
2022-09-07T20:53:51.353Z,76.19
2022-09-07T20:56:20.463Z,79.23
2022-09-07T20:58:48.769Z,79.32
2022-09-07T21:01:18.557Z,79.14
2022-09-07T21:03:49.324Z,79.46
2022-09-07T21:06:17.069Z,79.21
2022-09-07T21:08:45.466Z,79.35
2022-09-07T21:11:16.699Z,79.38
2022-09-07T21:13:43.327Z,79.96
2022-09-07T21:16:12.482Z,78.99
2022-09-07T21:18:39.950Z,80.58
2022-09-07T21:21:22.408Z,80.17
2022-09-07T21:23:49.324Z,79.03
2022-09-07T21:26:20.945Z,80.02
2022-09-07T21:28:47.493Z,80.63
2022-09-07T21:31:14.103Z,81.49
2022-09-07T21:33:40.716Z,82.28
2022-09-07T21:36:12.831Z,82.64
2022-09-07T21:38:41.056Z,81.58
2022-09-07T21:41:13.769Z,82.14
2022-09-07T21:43:40.518Z,81.71
2022-09-07T21:46:12.196Z,81.47
2022-09-07T21:48:39.293Z,80.84
2022-09-07T21:51:06.520Z,81.63
2022-09-07T21:53:33.575Z,81.27
2022-09-07T21:56:08.599Z,80.73
2022-09-07T21:58:35.851Z,80.86
2022-09-07T22:01:31.772Z,79.95
2022-09-07T22:04:03.648Z,80.54
2022-09-07T22:06:32.198Z,80.14
2022-09-07T22:08:59.327Z,80.62
2022-09-07T22:11:27.390Z,81.17
2022-09-07T22:13:55.795Z,80.65
2022-09-07T22:16:23.188Z,80.54
2022-09-07T22:18:50.114Z,80.63
2022-09-07T22:21:20.106Z,80.72
2022-09-07T22:23:49.594Z,81.23
2022-09-07T22:26:21.967Z,81.05
2022-09-07T22:28:49.130Z,79.84
2022-09-07T22:31:30.047Z,80.46
2022-09-07T22:33:57.630Z,81.93
2022-09-07T22:36:32.530Z,81.31
2022-09-07T22:39:01.736Z,81.54
2022-09-07T22:41:30.974Z,80.00
2022-09-07T22:43:57.927Z,80.45
2022-09-07T22:46:27.865Z,81.36
2022-09-07T22:48:56.188Z,80.37
2022-09-07T22:51:25.200Z,80.40
2022-09-07T22:53:52.796Z,80.38
2022-09-07T22:56:27.344Z,79.34
2022-09-07T22:58:56.774Z,80.98
2022-09-07T23:01:23.612Z,81.05
2022-09-07T23:03:50.901Z,79.80
2022-09-07T23:06:22.053Z,81.62
2022-09-07T23:08:50.186Z,81.28
2022-09-07T23:11:17.286Z,82.44
2022-09-07T23:13:44.382Z,81.84
2022-09-07T23:16:11.486Z,82.07
2022-09-07T23:18:40.901Z,82.66
2022-09-07T23:21:08.205Z,82.85
2022-09-07T23:23:34.966Z,83.09
2022-09-07T23:26:02.800Z,84.18
2022-09-07T23:28:31.069Z,85.01
2022-09-07T23:30:58.031Z,84.14
2022-09-07T23:33:26.261Z,83.64
2022-09-07T23:47:14.984Z,82.62
2022-09-07T23:49:41.501Z,83.50
2022-09-07T23:52:08.049Z,84.62
2022-09-07T23:54:34.572Z,84.22
2022-09-07T23:57:01.106Z,83.78
2022-09-07T23:59:27.594Z,84.58
